Abbotts Ann, United Kingdom
Current Conditions -  °F | °C
As of 4:50 PM on Thursday 30 Oct 2014 (Local Time) from EGVP Reporting Station
Overcast Overcast  
Wind Chill: 61°   Ceiling: 800
Heat Index: 61°   Visibility: 5mi
Dew Point: 57°   Wind: 3mph
Humidity: 88%   Direction: 150°SSE
Pressure: 30.06"   Gusts: NA
Location:  51.19°N, 1.53°W
Report Text: EGVP 301650Z AUTO 15003KT 8000 // OVC008/// 16/14 Q1018
Loading
Personal Weather Stations






























Interactive Weather Map
Tropical Storm Tracking
New forecast layout! Learn more

10-Day Weather Forecast

Advertisements
Track Severe Weather on mobile